createdAt,value
2022-12-25T00:01:55.027Z,6.50
2022-12-25T00:04:22.729Z,4.05
2022-12-25T00:06:50.211Z,1.25
2022-12-25T00:09:17.708Z,1.67
2022-12-25T00:11:45.689Z,4.28
2022-12-25T00:14:13.225Z,0.73
2022-12-25T00:16:41.224Z,2.67
2022-12-25T00:19:08.879Z,1.20
2022-12-25T00:21:35.847Z,1.65
2022-12-25T00:24:04.295Z,1.00
2022-12-25T00:26:32.034Z,2.80
2022-12-25T00:28:59.079Z,2.90
2022-12-25T00:31:26.829Z,1.58
2022-12-25T00:33:53.976Z,1.30
2022-12-25T00:36:24.185Z,1.00
2022-12-25T00:38:51.232Z,2.27
2022-12-25T00:41:39.299Z,1.70
2022-12-25T00:44:08.001Z,1.15
2022-12-25T00:46:35.264Z,1.25
2022-12-25T00:49:02.845Z,1.60
2022-12-25T00:51:29.881Z,0.60
2022-12-25T00:53:56.846Z,1.20
2022-12-25T00:56:23.765Z,0.68
2022-12-25T00:58:51.093Z,1.10
2022-12-25T01:01:18.213Z,1.58
2022-12-25T01:03:45.272Z,1.63
2022-12-25T01:06:15.676Z,0.70
2022-12-25T01:09:02.513Z,1.77
2022-12-25T01:11:30.155Z,1.05
2022-12-25T01:13:59.942Z,2.05
2022-12-25T01:16:27.607Z,1.88
2022-12-25T01:18:54.549Z,1.95
2022-12-25T01:21:22.065Z,1.38
2022-12-25T01:23:50.371Z,1.20
2022-12-25T01:26:19.154Z,1.15
2022-12-25T01:28:46.781Z,2.33
2022-12-25T01:31:16.442Z,1.17
2022-12-25T01:33:46.096Z,1.30
2022-12-25T01:36:18.608Z,0.82
2022-12-25T01:38:46.967Z,1.23
2022-12-25T01:41:16.470Z,0.95
2022-12-25T01:44:03.577Z,1.08
2022-12-25T01:46:31.165Z,1.88
2022-12-25T01:49:02.898Z,1.48
2022-12-25T01:51:41.647Z,0.98
2022-12-25T01:54:20.570Z,2.03
2022-12-25T01:56:51.163Z,1.65
2022-12-25T01:59:21.649Z,1.10
2022-12-25T02:01:49.267Z,1.13
2022-12-25T02:04:41.347Z,1.23
2022-12-25T02:07:13.459Z,2.08
2022-12-25T02:09:40.951Z,0.98
2022-12-25T02:12:11.963Z,0.80
2022-12-25T02:14:38.991Z,1.25
2022-12-25T02:17:20.958Z,1.27
2022-12-25T02:19:57.200Z,1.40
2022-12-25T02:22:45.845Z,1.00
2022-12-25T02:25:33.745Z,1.33
2022-12-25T02:28:06.770Z,1.38
2022-12-25T02:30:41.253Z,0.50
2022-12-25T02:33:34.743Z,1.92
2022-12-25T02:36:07.373Z,0.57
2022-12-25T02:38:59.991Z,1.15
2022-12-25T02:41:29.997Z,0.95
2022-12-25T02:44:16.831Z,2.38
2022-12-25T02:47:03.100Z,0.95
2022-12-25T02:49:49.996Z,0.60
2022-12-25T02:52:39.459Z,1.73
2022-12-25T02:55:38.647Z,1.05
2022-12-25T02:58:29.389Z,0.80
2022-12-25T03:01:22.039Z,0.68
2022-12-25T03:04:10.712Z,0.75
2022-12-25T03:06:43.258Z,0.73
2022-12-25T03:09:34.775Z,0.80
2022-12-25T03:12:13.925Z,1.42
2022-12-25T03:14:59.534Z,1.75
2022-12-25T03:17:32.919Z,0.73
2022-12-25T03:20:19.010Z,1.13
2022-12-25T03:23:06.643Z,1.25
2022-12-25T03:25:52.691Z,2.67
2022-12-25T03:28:19.755Z,0.68
2022-12-25T03:31:13.993Z,1.15
2022-12-25T03:34:11.904Z,0.88
2022-12-25T03:37:20.589Z,1.88
2022-12-25T03:40:21.301Z,1.15
2022-12-25T03:43:14.053Z,1.52
2022-12-25T03:46:04.984Z,0.90
2022-12-25T03:48:55.402Z,0.90
2022-12-25T03:51:49.375Z,0.90
2022-12-25T03:54:40.131Z,1.00
2022-12-25T03:57:27.534Z,0.65
2022-12-25T04:00:13.128Z,0.60
2022-12-25T04:02:59.180Z,1.77
2022-12-25T04:05:44.633Z,1.25
2022-12-25T04:08:30.525Z,0.60
2022-12-25T04:11:16.196Z,1.50
2022-12-25T04:14:01.626Z,0.77
2022-12-25T04:16:47.086Z,0.73
2022-12-25T04:19:32.728Z,0.60
2022-12-25T04:22:18.382Z,2.15
2022-12-25T04:25:03.770Z,0.57
2022-12-25T04:27:49.559Z,1.73
2022-12-25T04:30:36.288Z,0.98
2022-12-25T04:33:21.621Z,0.55
2022-12-25T04:36:08.384Z,1.40
2022-12-25T04:38:35.983Z,1.40
2022-12-25T04:41:04.107Z,1.17
2022-12-25T04:43:31.121Z,0.75
2022-12-25T04:46:00.487Z,1.98
2022-12-25T04:48:28.740Z,1.20
2022-12-25T04:50:56.472Z,0.70
2022-12-25T04:53:23.369Z,0.70
2022-12-25T04:55:50.399Z,1.60
2022-12-25T04:58:17.278Z,0.93
2022-12-25T05:00:44.338Z,0.57
2022-12-25T05:03:11.444Z,0.93
2022-12-25T05:05:41.228Z,0.70
2022-12-25T05:08:08.162Z,2.67
2022-12-25T05:10:34.963Z,1.15
2022-12-25T05:13:01.789Z,0.65
2022-12-25T05:15:28.871Z,1.98
2022-12-25T05:17:55.837Z,1.23
2022-12-25T05:20:23.123Z,2.08
2022-12-25T05:22:50.057Z,0.70
2022-12-25T05:25:16.974Z,2.50
2022-12-25T05:27:47.532Z,0.95
2022-12-25T05:30:17.291Z,0.90
2022-12-25T05:32:44.118Z,1.10
2022-12-25T05:35:11.056Z,2.60
2022-12-25T05:37:37.967Z,2.60
2022-12-25T05:40:05.366Z,1.80
2022-12-25T05:42:32.172Z,1.92
2022-12-25T05:44:58.999Z,0.57
2022-12-25T05:47:25.948Z,2.30
2022-12-25T05:49:52.791Z,1.98
2022-12-25T05:52:19.654Z,3.15
2022-12-25T05:54:46.471Z,1.38
2022-12-25T05:57:13.430Z,0.70
2022-12-25T05:59:40.250Z,1.17
2022-12-25T06:02:07.237Z,1.00
2022-12-25T06:04:36.365Z,1.80
2022-12-25T06:07:03.901Z,1.55
2022-12-25T06:09:30.767Z,1.20
2022-12-25T06:11:57.681Z,1.48
2022-12-25T06:14:24.532Z,1.98
2022-12-25T06:16:53.119Z,3.83
2022-12-25T06:19:20.768Z,1.10
2022-12-25T06:21:47.917Z,1.73
2022-12-25T06:24:19.323Z,0.80
2022-12-25T06:26:48.348Z,1.58
2022-12-25T06:29:15.401Z,3.65
2022-12-25T06:31:42.274Z,1.55
2022-12-25T06:34:09.587Z,2.80
2022-12-25T06:36:38.561Z,3.78
2022-12-25T06:39:05.475Z,1.23
2022-12-25T06:41:33.118Z,1.88
2022-12-25T06:44:01.541Z,1.02
2022-12-25T06:46:30.346Z,2.05
2022-12-25T06:48:58.827Z,3.35
2022-12-25T06:51:28.652Z,1.92
2022-12-25T06:53:56.302Z,0.85
2022-12-25T06:56:26.282Z,2.05
2022-12-25T06:58:59.748Z,1.40
2022-12-25T07:01:47.818Z,0.80
2022-12-25T07:04:20.903Z,1.25
2022-12-25T07:06:47.833Z,1.60
2022-12-25T07:09:14.951Z,1.63
2022-12-25T07:11:41.883Z,1.35
2022-12-25T07:14:17.435Z,1.95
2022-12-25T07:16:49.457Z,0.95
2022-12-25T07:19:16.722Z,1.23
2022-12-25T07:21:43.628Z,3.95
2022-12-25T07:24:11.366Z,3.33
2022-12-25T07:26:38.241Z,2.30
2022-12-25T07:29:05.609Z,2.92
2022-12-25T07:31:32.633Z,2.55
2022-12-25T07:33:59.740Z,3.40
2022-12-25T07:36:26.727Z,1.70
2022-12-25T07:38:53.861Z,1.40
2022-12-25T07:41:21.548Z,1.73
2022-12-25T07:43:54.107Z,2.92
2022-12-25T07:46:23.473Z,2.42
2022-12-25T07:48:50.580Z,1.75
2022-12-25T07:51:17.585Z,2.75
2022-12-25T07:53:44.545Z,6.38
2022-12-25T07:56:20.113Z,3.88
2022-12-25T07:58:47.566Z,6.13
2022-12-25T08:01:22.108Z,2.95
2022-12-25T08:03:51.572Z,10.50
2022-12-25T08:06:19.694Z,6.00
2022-12-25T08:08:46.897Z,6.95
2022-12-25T08:11:14.229Z,10.00
2022-12-25T08:13:41.450Z,3.67
2022-12-25T08:16:10.711Z,1.73
2022-12-25T08:18:39.519Z,10.68
2022-12-25T08:21:12.496Z,5.63
2022-12-25T08:23:45.402Z,5.40
2022-12-25T08:26:17.568Z,5.07
2022-12-25T08:28:44.880Z,3.40
2022-12-25T08:31:16.163Z,6.30
2022-12-25T08:33:44.267Z,5.85
2022-12-25T08:36:12.756Z,8.90
2022-12-25T08:38:40.742Z,8.90
2022-12-25T08:41:08.140Z,9.50
2022-12-25T08:43:35.667Z,2.22
2022-12-25T08:46:03.504Z,4.15
2022-12-25T08:48:30.772Z,10.07
2022-12-25T08:50:58.554Z,6.78
2022-12-25T08:53:26.098Z,6.35
2022-12-25T08:56:04.931Z,15.63
2022-12-25T08:58:31.903Z,42.65
2022-12-25T09:00:58.864Z,25.20
2022-12-25T09:03:26.563Z,36.63
2022-12-25T09:05:54.660Z,26.00
2022-12-25T09:08:22.307Z,18.45
2022-12-25T09:10:49.672Z,12.95
2022-12-25T09:13:16.908Z,9.38
2022-12-25T09:15:43.800Z,17.75
2022-12-25T09:18:10.807Z,6.45
2022-12-25T09:20:37.699Z,13.70
2022-12-25T09:23:09.951Z,4.93
2022-12-25T09:25:40.657Z,13.00
2022-12-25T09:28:07.590Z,18.02
2022-12-25T09:30:34.855Z,5.22
2022-12-25T09:33:02.120Z,18.25
2022-12-25T09:35:29.379Z,16.23
2022-12-25T09:37:56.545Z,12.68
2022-12-25T09:40:26.453Z,14.65
2022-12-25T09:42:56.788Z,13.93
2022-12-25T09:45:33.339Z,10.50
2022-12-25T09:48:00.635Z,14.60
2022-12-25T09:51:12.472Z,18.73
2022-12-25T09:53:44.099Z,22.95
2022-12-25T09:56:20.831Z,17.90
2022-12-25T09:58:48.017Z,12.25
2022-12-25T10:01:56.494Z,18.17
2022-12-25T10:04:40.959Z,9.05
2022-12-25T10:07:28.463Z,10.98
2022-12-25T10:10:26.896Z,10.82
2022-12-25T10:13:03.235Z,11.90
2022-12-25T10:15:33.168Z,6.43
2022-12-25T10:18:45.204Z,18.05
2022-12-25T10:21:18.785Z,13.10
2022-12-25T10:23:53.688Z,17.00
2022-12-25T10:26:23.512Z,12.98
2022-12-25T10:29:03.493Z,14.20
2022-12-25T10:31:35.497Z,16.27
2022-12-25T10:34:03.763Z,17.73
2022-12-25T10:36:31.238Z,10.02
2022-12-25T10:38:58.780Z,11.50
2022-12-25T10:41:44.151Z,14.15
2022-12-25T10:44:20.553Z,10.50
2022-12-25T10:47:01.744Z,11.30
2022-12-25T10:51:58.056Z,8.00
2022-12-25T10:54:26.893Z,10.20
2022-12-25T10:56:59.640Z,10.90
2022-12-25T10:59:36.233Z,9.85
2022-12-25T11:02:31.416Z,6.78
2022-12-25T11:05:03.641Z,9.32
2022-12-25T11:07:32.451Z,10.13
2022-12-25T11:10:05.823Z,20.15
2022-12-25T11:12:42.711Z,49.60
2022-12-25T11:15:43.351Z,36.22
2022-12-25T11:18:33.322Z,21.25
2022-12-25T11:21:16.108Z,26.65
2022-12-25T11:23:50.684Z,20.40
2022-12-25T11:26:19.134Z,24.42
2022-12-25T11:28:48.710Z,25.23
2022-12-25T11:31:21.662Z,22.27
2022-12-25T11:34:00.154Z,13.40
2022-12-25T11:36:45.324Z,17.50
2022-12-25T11:39:36.604Z,23.52
2022-12-25T11:44:59.103Z,20.02
2022-12-25T11:47:52.135Z,15.77
2022-12-25T11:50:20.631Z,12.10
2022-12-25T11:52:48.649Z,11.75
2022-12-25T11:55:40.625Z,10.90
2022-12-25T11:58:28.851Z,11.85
2022-12-25T12:00:58.851Z,6.50
2022-12-25T12:03:35.295Z,12.13
2022-12-25T12:06:07.688Z,9.68
2022-12-25T12:08:36.817Z,8.43
2022-12-25T12:11:39.203Z,9.40
2022-12-25T12:14:33.560Z,6.57
2022-12-25T12:17:01.032Z,6.15
2022-12-25T12:19:34.913Z,10.27
2022-12-25T12:22:04.404Z,8.40
2022-12-25T12:24:35.586Z,5.28
2022-12-25T12:27:23.165Z,7.03
2022-12-25T12:29:53.836Z,12.05
2022-12-25T12:32:39.534Z,3.80
2022-12-25T12:35:28.920Z,6.97
2022-12-25T12:38:03.840Z,5.32
2022-12-25T12:40:43.579Z,8.88
2022-12-25T12:43:39.076Z,8.13
2022-12-25T12:46:08.870Z,6.32
2022-12-25T12:48:42.621Z,11.50
2022-12-25T12:51:15.514Z,11.05
2022-12-25T12:53:43.915Z,12.45
2022-12-25T12:56:20.416Z,10.35
2022-12-25T12:58:51.260Z,7.28
2022-12-25T13:01:27.262Z,7.43
2022-12-25T13:04:31.681Z,8.48
2022-12-25T13:07:14.004Z,6.35
2022-12-25T13:10:23.482Z,9.25
2022-12-25T13:13:10.414Z,12.35
2022-12-25T13:15:38.801Z,30.27
2022-12-25T13:18:12.951Z,11.70
2022-12-25T13:21:00.482Z,9.07
2022-12-25T13:23:33.170Z,120.72
2022-12-25T13:26:18.338Z,118.50
2022-12-25T13:28:48.604Z,76.47
2022-12-25T13:31:25.013Z,66.77
2022-12-25T13:33:52.103Z,56.15
2022-12-25T13:36:19.320Z,47.33
2022-12-25T13:38:49.767Z,43.53
2022-12-25T13:41:40.183Z,41.17
2022-12-25T13:44:22.080Z,35.77
2022-12-25T13:46:49.148Z,35.20
2022-12-25T13:49:22.132Z,28.23
2022-12-25T13:51:50.668Z,32.15
2022-12-25T13:54:19.279Z,27.33
2022-12-25T13:56:52.105Z,26.38
2022-12-25T13:59:25.470Z,22.42
2022-12-25T14:01:54.418Z,21.52
2022-12-25T14:04:24.471Z,19.13
2022-12-25T14:06:53.004Z,27.73
2022-12-25T14:09:20.832Z,24.13
2022-12-25T14:11:52.470Z,27.63
2022-12-25T14:14:21.360Z,24.27
2022-12-25T14:16:51.401Z,24.48
2022-12-25T14:19:34.634Z,29.17
2022-12-25T14:22:22.548Z,27.73
2022-12-25T14:24:50.165Z,20.90
2022-12-25T14:27:30.637Z,20.95
2022-12-25T14:30:00.844Z,15.80
2022-12-25T14:32:31.096Z,24.00
2022-12-25T14:35:03.815Z,10.47
2022-12-25T14:37:33.101Z,14.23
2022-12-25T14:40:18.395Z,18.98
2022-12-25T14:42:57.797Z,14.80
2022-12-25T14:45:40.964Z,13.13
2022-12-25T14:48:26.256Z,19.73
2022-12-25T14:51:16.968Z,20.13
2022-12-25T14:53:50.166Z,22.48
2022-12-25T14:56:20.722Z,34.42
2022-12-25T14:58:51.190Z,46.00
2022-12-25T15:01:42.092Z,39.03
2022-12-25T15:04:12.312Z,51.22
2022-12-25T15:07:00.987Z,46.38
2022-12-25T15:09:30.271Z,36.85
2022-12-25T15:11:57.289Z,38.35
2022-12-25T15:14:25.699Z,36.97
2022-12-25T15:16:57.028Z,35.25
2022-12-25T15:19:31.711Z,33.50
2022-12-25T15:22:02.940Z,42.58
2022-12-25T15:24:29.882Z,29.45
2022-12-25T15:27:00.837Z,30.77
2022-12-25T15:32:21.259Z,26.70
2022-12-25T15:34:50.195Z,36.95
2022-12-25T15:37:18.728Z,30.10
2022-12-25T15:39:46.158Z,31.50
2022-12-25T15:42:19.481Z,33.75
2022-12-25T15:44:46.610Z,31.95
2022-12-25T15:47:15.901Z,28.65
2022-12-25T15:49:43.738Z,25.88
2022-12-25T15:52:14.351Z,18.70
2022-12-25T15:54:41.442Z,20.38
2022-12-25T15:57:18.491Z,17.23
2022-12-25T15:59:45.663Z,16.15
2022-12-25T16:02:18.576Z,16.60
2022-12-25T16:04:46.207Z,13.82
2022-12-25T16:07:21.951Z,10.93
2022-12-25T16:09:49.580Z,10.80
2022-12-25T16:12:16.997Z,7.95
2022-12-25T16:14:43.991Z,11.38
2022-12-25T16:17:16.156Z,6.45
2022-12-25T16:19:45.072Z,9.68
2022-12-25T16:22:21.710Z,6.03
2022-12-25T16:24:49.978Z,8.07
2022-12-25T16:27:16.924Z,8.32
2022-12-25T16:29:44.048Z,5.68
2022-12-25T16:32:13.178Z,7.47
2022-12-25T16:34:40.857Z,5.20
2022-12-25T16:37:07.787Z,11.82
2022-12-25T16:39:34.929Z,13.80
2022-12-25T16:42:02.109Z,17.10
2022-12-25T16:44:29.181Z,7.47
2022-12-25T16:46:56.403Z,6.45
2022-12-25T16:49:24.076Z,17.75
2022-12-25T16:51:51.043Z,14.48
2022-12-25T16:54:18.079Z,3.88
2022-12-25T16:56:44.976Z,16.02
2022-12-25T16:59:12.213Z,17.55
2022-12-25T17:01:43.578Z,12.50
2022-12-25T17:04:10.802Z,13.77
2022-12-25T17:06:37.838Z,13.50
2022-12-25T17:09:05.451Z,8.15
2022-12-25T17:11:32.663Z,6.03
2022-12-25T17:14:02.818Z,5.32
2022-12-25T17:16:35.487Z,3.57
2022-12-25T17:19:06.008Z,15.23
2022-12-25T17:21:34.626Z,7.82
2022-12-25T17:24:04.225Z,8.35
2022-12-25T17:26:32.741Z,8.60
2022-12-25T17:29:00.309Z,19.35
2022-12-25T17:31:27.882Z,14.85
2022-12-25T17:33:56.582Z,10.32
2022-12-25T17:36:23.800Z,7.18
2022-12-25T17:38:52.182Z,6.75
2022-12-25T17:41:20.391Z,8.88
2022-12-25T17:43:48.477Z,3.65
2022-12-25T17:46:21.725Z,4.45
2022-12-25T17:48:52.019Z,14.55
2022-12-25T17:51:22.294Z,7.50
2022-12-25T17:53:55.492Z,19.67
2022-12-25T17:56:24.650Z,7.95
2022-12-25T17:59:01.812Z,14.27
2022-12-25T18:01:35.222Z,6.53
2022-12-25T18:04:02.933Z,5.05
2022-12-25T18:06:30.803Z,7.55
2022-12-25T18:08:59.335Z,11.15
2022-12-25T18:11:29.730Z,2.65
2022-12-25T18:13:58.471Z,2.78
2022-12-25T18:16:27.349Z,3.15
2022-12-25T18:18:54.816Z,5.57
2022-12-25T18:21:23.426Z,4.25
2022-12-25T18:23:51.048Z,4.35
2022-12-25T18:26:21.207Z,2.78
2022-12-25T18:28:50.079Z,5.30
2022-12-25T18:31:24.175Z,8.55
2022-12-25T18:33:51.919Z,11.50
2022-12-25T18:36:22.407Z,5.60
2022-12-25T18:38:50.990Z,3.03
2022-12-25T18:41:19.295Z,2.58
2022-12-25T18:43:52.630Z,5.70
2022-12-25T18:46:27.050Z,2.90
2022-12-25T18:48:55.901Z,4.97
2022-12-25T18:51:23.566Z,2.72
2022-12-25T18:53:51.671Z,6.63
2022-12-25T18:56:19.176Z,4.25
2022-12-25T18:58:47.393Z,2.67
2022-12-25T19:01:20.848Z,4.63
2022-12-25T19:03:49.409Z,3.28
2022-12-25T19:06:21.852Z,8.23
2022-12-25T19:08:51.848Z,2.08
2022-12-25T19:11:20.471Z,4.72
2022-12-25T19:13:48.134Z,14.68
2022-12-25T19:16:16.322Z,7.40
2022-12-25T19:18:43.719Z,9.70
2022-12-25T19:21:11.593Z,5.95
2022-12-25T19:23:39.359Z,8.55
2022-12-25T19:26:08.213Z,3.92
2022-12-25T19:28:36.096Z,12.48
2022-12-25T19:31:05.167Z,8.95
2022-12-25T19:33:32.789Z,4.38
2022-12-25T19:36:06.364Z,12.05
2022-12-25T19:38:34.983Z,3.42
2022-12-25T19:41:18.739Z,5.57
2022-12-25T19:43:48.036Z,4.53
2022-12-25T19:46:19.370Z,5.97
2022-12-25T19:48:47.921Z,7.93
2022-12-25T19:51:22.030Z,6.47
2022-12-25T19:53:50.782Z,6.50
2022-12-25T19:56:19.292Z,5.25
2022-12-25T19:58:46.750Z,2.25
2022-12-25T20:01:18.555Z,10.18
2022-12-25T20:03:47.984Z,2.60
2022-12-25T20:06:23.671Z,6.18
2022-12-25T20:08:53.942Z,2.58
2022-12-25T20:11:26.329Z,5.43
2022-12-25T20:13:54.167Z,3.42
2022-12-25T20:16:23.072Z,1.63
2022-12-25T20:18:50.653Z,4.47
2022-12-25T20:21:20.899Z,3.20
2022-12-25T20:23:50.835Z,2.40
2022-12-25T20:26:20.986Z,6.75
2022-12-25T20:28:49.056Z,3.60
2022-12-25T20:31:27.947Z,12.57
2022-12-25T20:33:56.977Z,8.73
2022-12-25T20:36:26.562Z,7.18
2022-12-25T20:38:55.755Z,19.60
2022-12-25T20:41:28.338Z,18.13
2022-12-25T20:43:56.456Z,9.70
2022-12-25T20:46:24.789Z,4.05
2022-12-25T20:48:53.308Z,11.60
2022-12-25T20:51:23.467Z,11.98
2022-12-25T20:53:52.783Z,16.20
2022-12-25T20:56:22.676Z,9.05
2022-12-25T20:58:54.459Z,11.07
2022-12-25T21:01:22.154Z,3.22
2022-12-25T21:03:50.203Z,4.53
2022-12-25T21:06:19.083Z,5.95
2022-12-25T21:08:47.812Z,5.38
2022-12-25T21:11:16.226Z,10.27
2022-12-25T21:13:45.977Z,25.80
2022-12-25T21:16:17.638Z,20.80
2022-12-25T21:18:46.121Z,23.05
2022-12-25T21:21:14.520Z,18.45
2022-12-25T21:23:42.748Z,81.55
2022-12-25T21:26:26.138Z,19.60
2022-12-25T21:28:56.442Z,7.07
2022-12-25T21:31:25.243Z,11.00
2022-12-25T21:33:56.380Z,12.00
2022-12-25T21:39:03.257Z,13.50
2022-12-25T21:41:32.998Z,7.53
2022-12-25T21:44:00.992Z,14.63
2022-12-25T21:46:29.591Z,12.43
2022-12-25T21:48:57.712Z,11.15
2022-12-25T21:51:49.691Z,6.60
2022-12-25T21:54:18.237Z,8.48
2022-12-25T21:56:47.452Z,4.35
2022-12-25T21:59:17.659Z,7.07
2022-12-25T22:01:45.715Z,4.57
2022-12-25T22:04:16.886Z,4.13
2022-12-25T22:07:02.772Z,4.55
2022-12-25T22:09:30.739Z,8.95
2022-12-25T22:12:17.029Z,1.65
2022-12-25T22:14:56.858Z,10.65
2022-12-25T22:17:54.082Z,3.08
2022-12-25T22:20:35.154Z,5.88
2022-12-25T22:25:29.911Z,10.35
2022-12-25T22:27:58.420Z,11.40
2022-12-25T22:30:28.952Z,7.40
2022-12-25T22:32:56.524Z,3.33
2022-12-25T22:35:24.544Z,7.38
2022-12-25T22:37:51.839Z,4.95
2022-12-25T22:40:20.592Z,9.18
2022-12-25T22:42:48.227Z,8.25
2022-12-25T22:45:15.457Z,14.10
2022-12-25T22:47:42.941Z,11.57
2022-12-25T22:50:11.988Z,10.13
2022-12-25T22:52:39.354Z,6.53
2022-12-25T22:55:08.967Z,9.85
2022-12-25T22:57:36.621Z,3.33
2022-12-25T23:00:06.482Z,3.10
2022-12-25T23:02:35.829Z,22.70
2022-12-25T23:05:03.798Z,2.80
2022-12-25T23:07:31.495Z,3.13
2022-12-25T23:09:58.602Z,3.45
2022-12-25T23:12:46.164Z,12.50
2022-12-25T23:15:13.281Z,3.53
2022-12-25T23:17:58.688Z,2.50
2022-12-25T23:20:43.993Z,2.33
2022-12-25T23:23:35.086Z,1.23
2022-12-25T23:26:09.645Z,6.93
2022-12-25T23:28:57.026Z,4.00
2022-12-25T23:31:29.460Z,3.17
2022-12-25T23:33:56.833Z,1.55
2022-12-25T23:36:24.536Z,1.50
2022-12-25T23:38:51.952Z,0.90
2022-12-25T23:41:19.766Z,2.03
2022-12-25T23:43:47.316Z,1.02
2022-12-25T23:46:14.393Z,1.90
2022-12-25T23:48:41.382Z,1.65
2022-12-25T23:51:09.295Z,1.48
2022-12-25T23:53:36.728Z,0.90
2022-12-25T23:56:05.694Z,2.97
2022-12-25T23:58:33.876Z,2.20
